Time;durP1;ratioP1;P1;durP2;ratioP2;P2;SDS_P1;SDS_P2;PMS_P1;PMS_P2;Temp;Humidity;BMP_temperature;BMP_pressure;BME280_temperature;BME280_humidity;BME280_pressure;Samples;Min_cycle;Max_cycle;Signal;HPM_P1;HPM_P2
2021/09/29 00:01:08;;;;;;;;;;;13.70;99.90;;;;;;5040965;28;19969;-84
2021/09/29 00:03:36;;;;;;;;;;;13.60;99.90;;;;;;5042323;28;19999;-84
2021/09/29 00:06:03;;;;;;;;;;;13.60;99.90;;;;;;5042024;28;19971;-84
2021/09/29 00:08:29;;;;;;;;;;;13.50;99.90;;;;;;5042600;28;20000;-84
2021/09/29 00:10:56;;;;;;;;;;;13.50;99.90;;;;;;5042386;28;20367;-84
2021/09/29 00:13:24;;;;;;;;;;;13.50;99.90;;;;;;5043960;28;20002;-84
2021/09/29 00:15:50;;;;;;;;;;;13.50;99.90;;;;;;5044004;28;20068;-84
2021/09/29 00:18:17;;;;;;;;;;;13.60;99.90;;;;;;5046859;28;19963;-83
2021/09/29 00:20:45;;;;;;;;;;;13.60;99.90;;;;;;5047576;28;19959;-84
2021/09/29 00:23:11;;;;;;;;;;;13.70;99.90;;;;;;5043446;28;20000;-84
2021/09/29 00:25:38;;;;;;;;;;;13.70;99.90;;;;;;5038763;28;20297;-83
2021/09/29 00:28:05;;;;;;;;;;;13.60;99.90;;;;;;5041921;28;20433;-83
2021/09/29 00:30:35;;;;;;;;;;;13.60;99.90;;;;;;5041785;28;19984;-84
2021/09/29 00:33:03;;;;;;;;;;;13.50;99.90;;;;;;5041586;28;20440;-84
2021/09/29 00:35:30;;;;;;;;;;;13.50;99.90;;;;;;5044530;28;19969;-84
2021/09/29 00:37:57;;;;;;;;;;;13.50;99.90;;;;;;5049246;28;19971;-84
2021/09/29 00:40:24;;;;;;;;;;;13.60;99.90;;;;;;5053845;28;19954;-84
2021/09/29 00:42:50;;;;;;;;;;;13.60;99.90;;;;;;5049577;28;19951;-84
2021/09/29 00:45:17;;;;;;;;;;;13.60;99.90;;;;;;5055056;28;19930;-83
2021/09/29 00:47:43;;;;;;;;;;;13.60;99.90;;;;;;5059771;28;19950;-83
2021/09/29 00:50:10;;;;;;;;;;;13.60;99.90;;;;;;5060747;28;19956;-82
2021/09/29 00:52:39;;;;;;;;;;;13.60;99.90;;;;;;5051883;28;19946;-84
2021/09/29 00:55:08;;;;;;;;;;;13.50;99.90;;;;;;5043791;28;20006;-84
2021/09/29 00:57:35;;;;;;;;;;;13.40;99.90;;;;;;5044706;28;19947;-84
2021/09/29 01:00:01;;;;;;;;;;;13.30;99.90;;;;;;5043501;28;19947;-83
2021/09/29 01:02:28;;;;;;;;;;;13.30;99.90;;;;;;5042646;28;20474;-84
2021/09/29 01:04:54;;;;;;;;;;;13.40;99.90;;;;;;5046183;28;19979;-83
2021/09/29 01:07:24;;;;;;;;;;;13.40;99.90;;;;;;5047210;28;19964;-83
2021/09/29 01:09:54;;;;;;;;;;;13.50;99.90;;;;;;5048134;28;19988;-83
2021/09/29 01:12:31;;;;;;;;;;;13.50;99.90;;;;;;5043722;28;19947;-85
2021/09/29 01:15:00;;;;;;;;;;;13.50;99.90;;;;;;5037995;28;19950;-85
2021/09/29 01:17:28;;;;;;;;;;;13.50;99.90;;;;;;5037393;28;19995;-85
2021/09/29 01:19:59;;;;;;;;;;;13.50;99.90;;;;;;5037533;28;20001;-85
2021/09/29 01:22:33;;;;;;;;;;;13.50;99.90;;;;;;5037376;28;19999;-85
2021/09/29 01:25:02;;;;;;;;;;;13.50;99.90;;;;;;5037357;28;19996;-85
2021/09/29 01:27:31;;;;;;;;;;;13.40;99.90;;;;;;5037283;28;20346;-85
2021/09/29 01:29:57;;;;;;;;;;;13.40;99.90;;;;;;5039243;28;19995;-86
2021/09/29 01:32:24;;;;;;;;;;;13.30;99.90;;;;;;5037291;28;20436;-85
2021/09/29 01:34:51;;;;;;;;;;;13.30;99.90;;;;;;5036732;28;19950;-85
2021/09/29 01:37:18;;;;;;;;;;;13.30;99.90;;;;;;5038996;28;20002;-85
2021/09/29 01:42:37;;;;;;;;;;;13.30;99.90;;;;;;5057851;28;19935;-88
2021/09/29 01:45:07;;;;;;;;;;;12.20;99.90;;;;;;5058088;28;20295;-87
2021/09/29 01:47:40;;;;;;;;;;;13.20;99.90;;;;;;5052658;28;20458;-87
2021/09/29 01:50:08;;;;;;;;;;;13.10;99.90;;;;;;5053249;28;19991;-87
2021/09/29 01:52:48;;;;;;;;;;;13.30;99.90;;;;;;5055776;28;20010;-87
2021/09/29 01:55:24;;;;;;;;;;;12.20;99.90;;;;;;5055258;28;19965;-87
2021/09/29 01:57:59;;;;;;;;;;;15.60;99.90;;;;;;5055820;28;19944;-87
2021/09/29 02:00:38;;;;;;;;;;;13.50;99.90;;;;;;5053952;28;20053;-87
2021/09/29 02:05:57;;;;;;;;;;;13.30;99.90;;;;;;5051953;28;19966;-87
2021/09/29 02:08:39;;;;;;;;;;;13.50;99.90;;;;;;5057403;28;19942;-87
2021/09/29 02:11:15;;;;;;;;;;;14.20;99.90;;;;;;5050905;28;19953;-87
2021/09/29 02:13:43;;;;;;;;;;;13.50;99.90;;;;;;5048153;28;19949;-87
2021/09/29 02:16:26;;;;;;;;;;;15.10;99.90;;;;;;5051291;28;19944;-87
2021/09/29 02:19:00;;;;;;;;;;;12.50;99.90;;;;;;5046431;28;20403;-87
2021/09/29 02:21:40;;;;;;;;;;;13.70;99.90;;;;;;5052772;28;19949;-88
2021/09/29 02:24:10;;;;;;;;;;;13.90;99.90;;;;;;5051622;28;20018;-88
2021/09/29 02:32:03;;;;;;;;;;;12.90;99.90;;;;;;5026903;28;19947;-88
2021/09/29 02:34:33;;;;;;;;;;;13.40;99.90;;;;;;5053816;28;19940;-88
2021/09/29 02:37:02;;;;;;;;;;;13.80;99.90;;;;;;5055070;28;20021;-88
2021/09/29 02:39:33;;;;;;;;;;;13.40;99.90;;;;;;5051950;28;19968;-88
2021/09/29 02:42:04;;;;;;;;;;;13.50;99.90;;;;;;5054706;28;19950;-88
2021/09/29 02:44:40;;;;;;;;;;;14.90;99.90;;;;;;5055052;28;19946;-88
2021/09/29 02:47:07;;;;;;;;;;;13.70;99.90;;;;;;5053787;28;19950;-88
2021/09/29 02:49:36;;;;;;;;;;;13.60;99.90;;;;;;5059263;28;19992;-88
2021/09/29 02:52:28;;;;;;;;;;;15.80;99.90;;;;;;5061153;28;19939;-88
2021/09/29 02:55:01;;;;;;;;;;;13.70;99.90;;;;;;5053442;28;19989;-87
2021/09/29 02:57:43;;;;;;;;;;;13.60;99.90;;;;;;5058864;28;20014;-87
2021/09/29 03:00:22;;;;;;;;;;;14.10;99.90;;;;;;5059947;28;19971;-88
2021/09/29 03:02:59;;;;;;;;;;;14.00;99.90;;;;;;5062074;28;19961;-89
2021/09/29 03:08:16;;;;;;;;;;;13.80;99.90;;;;;;5055952;28;19964;-87
2021/09/29 03:10:48;;;;;;;;;;;13.80;99.90;;;;;;5059779;28;19933;-88
2021/09/29 03:13:15;;;;;;;;;;;12.80;99.90;;;;;;5059194;28;19934;-88
2021/09/29 03:15:45;;;;;;;;;;;13.40;99.90;;;;;;5058631;28;20005;-88
2021/09/29 03:18:14;;;;;;;;;;;13.80;99.90;;;;;;5057814;28;19964;-87
2021/09/29 03:20:55;;;;;;;;;;;13.80;99.90;;;;;;5055866;28;19939;-87
2021/09/29 03:23:22;;;;;;;;;;;13.40;99.90;;;;;;5052340;28;19956;-87
2021/09/29 03:25:49;;;;;;;;;;;15.30;99.90;;;;;;5049188;28;19954;-87
2021/09/29 03:28:18;;;;;;;;;;;13.60;99.90;;;;;;5048752;28;19974;-88
2021/09/29 03:30:47;;;;;;;;;;;13.80;99.90;;;;;;5053339;28;19948;-88
2021/09/29 03:33:19;;;;;;;;;;;15.00;99.90;;;;;;5053492;28;19959;-87
2021/09/29 03:35:50;;;;;;;;;;;13.60;99.90;;;;;;5056614;28;20576;-87
2021/09/29 03:38:18;;;;;;;;;;;13.50;99.90;;;;;;5057770;28;19961;-88
2021/09/29 03:40:46;;;;;;;;;;;12.60;99.90;;;;;;5058785;28;20009;-88
2021/09/29 03:43:22;;;;;;;;;;;15.80;99.90;;;;;;5057579;28;19977;-88
2021/09/29 03:45:54;;;;;;;;;;;13.70;99.90;;;;;;5056729;28;19933;-88
2021/09/29 03:48:21;;;;;;;;;;;16.40;99.90;;;;;;5057405;28;19949;-88
2021/09/29 03:50:48;;;;;;;;;;;13.70;99.90;;;;;;5058605;28;19937;-88
2021/09/29 03:53:17;;;;;;;;;;;13.80;99.90;;;;;;5060054;28;19981;-88
2021/09/29 03:55:45;;;;;;;;;;;13.40;99.90;;;;;;5060340;28;19974;-88
2021/09/29 03:58:12;;;;;;;;;;;13.20;99.90;;;;;;5060248;28;19985;-88
2021/09/29 04:00:41;;;;;;;;;;;16.00;99.90;;;;;;5058749;28;19935;-88
2021/09/29 04:03:11;;;;;;;;;;;12.90;99.90;;;;;;5060458;28;19975;-89
2021/09/29 04:05:39;;;;;;;;;;;13.40;99.90;;;;;;5061023;28;19948;-88
2021/09/29 04:08:10;;;;;;;;;;;13.40;99.90;;;;;;5060568;28;19948;-88
2021/09/29 04:10:53;;;;;;;;;;;13.30;99.90;;;;;;5059052;28;20273;-87
2021/09/29 04:13:22;;;;;;;;;;;13.80;99.90;;;;;;5058598;28;20067;-88
2021/09/29 04:15:52;;;;;;;;;;;13.30;99.90;;;;;;5059391;28;19963;-87
2021/09/29 04:18:19;;;;;;;;;;;13.60;99.90;;;;;;5058714;28;19957;-88
2021/09/29 04:20:49;;;;;;;;;;;12.70;99.90;;;;;;5057803;28;19950;-88
2021/09/29 04:23:20;;;;;;;;;;;14.00;99.90;;;;;;5058663;28;19950;-88
2021/09/29 04:25:48;;;;;;;;;;;13.90;99.90;;;;;;5059015;28;19978;-88
2021/09/29 04:28:15;;;;;;;;;;;14.60;99.90;;;;;;5059715;28;19950;-89
2021/09/29 04:30:49;;;;;;;;;;;13.70;99.90;;;;;;5059915;28;19978;-88
2021/09/29 04:33:17;;;;;;;;;;;13.20;99.90;;;;;;5060421;28;19929;-88
2021/09/29 04:35:44;;;;;;;;;;;13.40;99.90;;;;;;5060200;28;19942;-88
2021/09/29 04:38:10;;;;;;;;;;;13.90;99.90;;;;;;5060199;28;19939;-88
2021/09/29 04:40:46;;;;;;;;;;;14.40;99.90;;;;;;5059880;28;19955;-87
2021/09/29 04:43:31;;;;;;;;;;;13.70;99.90;;;;;;5059905;28;19949;-88
2021/09/29 04:46:09;;;;;;;;;;;13.90;99.90;;;;;;5059959;28;19946;-88
2021/09/29 04:48:38;;;;;;;;;;;15.10;99.90;;;;;;5057442;28;20008;-88
2021/09/29 04:51:13;;;;;;;;;;;12.40;99.90;;;;;;5056760;28;19935;-87
2021/09/29 04:53:46;;;;;;;;;;;13.90;99.90;;;;;;5059937;28;19948;-88
2021/09/29 04:56:17;;;;;;;;;;;12.70;99.90;;;;;;5059926;28;19935;-88
2021/09/29 04:58:53;;;;;;;;;;;13.40;99.90;;;;;;5059958;28;19972;-88
2021/09/29 05:01:25;;;;;;;;;;;13.90;99.90;;;;;;5059701;28;19994;-89
2021/09/29 05:06:35;;;;;;;;;;;14.00;99.90;;;;;;5050451;28;19952;-88
2021/09/29 05:09:03;;;;;;;;;;;14.00;99.90;;;;;;5059459;28;19989;-89
2021/09/29 05:11:52;;;;;;;;;;;13.30;99.90;;;;;;5058487;28;19947;-88
2021/09/29 05:14:24;;;;;;;;;;;14.00;99.90;;;;;;5056360;28;19950;-89
2021/09/29 05:17:00;;;;;;;;;;;14.60;99.90;;;;;;5059150;28;19935;-89
2021/09/29 05:19:29;;;;;;;;;;;13.90;99.90;;;;;;5058011;28;19963;-88
2021/09/29 05:21:56;;;;;;;;;;;14.90;99.90;;;;;;5056952;28;19966;-87
2021/09/29 05:24:23;;;;;;;;;;;14.00;99.90;;;;;;5056705;28;19934;-88
2021/09/29 05:26:55;;;;;;;;;;;16.30;99.90;;;;;;5049070;28;19947;-89
2021/09/29 05:29:22;;;;;;;;;;;13.90;99.90;;;;;;5055723;28;19954;-88
2021/09/29 05:31:51;;;;;;;;;;;14.10;99.90;;;;;;5056492;28;19990;-88
2021/09/29 05:34:20;;;;;;;;;;;14.10;99.90;;;;;;5056721;28;19953;-89
2021/09/29 05:36:49;;;;;;;;;;;14.00;99.90;;;;;;5058175;28;19942;-89
2021/09/29 05:39:19;;;;;;;;;;;13.70;99.90;;;;;;5056064;28;19967;-88
2021/09/29 05:41:50;;;;;;;;;;;15.20;99.90;;;;;;5056865;28;19935;-88
2021/09/29 05:44:25;;;;;;;;;;;14.30;99.90;;;;;;5054858;28;19951;-89
2021/09/29 05:46:59;;;;;;;;;;;13.90;99.90;;;;;;5057018;28;19935;-89
2021/09/29 05:49:27;;;;;;;;;;;13.40;99.90;;;;;;5054252;28;20103;-89
2021/09/29 05:51:53;;;;;;;;;;;14.20;99.90;;;;;;5056171;28;19948;-88
2021/09/29 05:54:20;;;;;;;;;;;14.40;99.90;;;;;;5055784;28;19945;-88
2021/09/29 05:57:13;;;;;;;;;;;14.50;99.90;;;;;;5054774;28;19976;-88
2021/09/29 05:59:40;;;;;;;;;;;14.50;99.90;;;;;;5054886;28;19963;-88
2021/09/29 06:02:06;;;;;;;;;;;14.30;99.90;;;;;;5056881;28;19942;-88
2021/09/29 06:04:34;;;;;;;;;;;14.50;99.90;;;;;;5056973;28;19963;-88
2021/09/29 06:07:00;;;;;;;;;;;14.50;99.90;;;;;;5056512;28;19950;-88
2021/09/29 06:09:27;;;;;;;;;;;14.60;99.90;;;;;;5057082;28;20061;-88
2021/09/29 06:12:01;;;;;;;;;;;14.60;99.90;;;;;;5053562;28;19950;-88
2021/09/29 06:14:27;;;;;;;;;;;14.50;99.90;;;;;;5055968;28;19970;-88
2021/09/29 06:16:59;;;;;;;;;;;14.60;99.90;;;;;;5053430;28;19947;-88
2021/09/29 06:19:28;;;;;;;;;;;14.60;99.90;;;;;;5053155;28;19974;-88
2021/09/29 06:22:01;;;;;;;;;;;13.20;99.90;;;;;;5055166;28;19975;-87
2021/09/29 06:24:30;;;;;;;;;;;14.20;99.90;;;;;;5052136;28;19944;-88
2021/09/29 06:26:56;;;;;;;;;;;14.70;99.90;;;;;;5053213;28;19944;-89
2021/09/29 06:29:38;;;;;;;;;;;14.60;99.90;;;;;;5049703;28;19965;-88
2021/09/29 06:32:05;;;;;;;;;;;13.90;99.90;;;;;;5048028;28;19986;-87
2021/09/29 06:34:32;;;;;;;;;;;14.80;99.90;;;;;;5049727;28;19957;-88
2021/09/29 06:37:00;;;;;;;;;;;14.80;99.90;;;;;;5055663;28;19936;-89
2021/09/29 06:39:27;;;;;;;;;;;14.40;99.90;;;;;;5058039;28;19952;-89
2021/09/29 06:41:53;;;;;;;;;;;14.80;99.90;;;;;;5058092;28;19957;-88
2021/09/29 06:44:20;;;;;;;;;;;14.80;99.90;;;;;;5050743;28;19968;-88
2021/09/29 06:46:47;;;;;;;;;;;16.40;99.90;;;;;;5050441;28;19972;-88
2021/09/29 06:49:13;;;;;;;;;;;14.90;99.90;;;;;;5049615;28;19962;-88
2021/09/29 06:51:45;;;;;;;;;;;14.90;99.90;;;;;;5046895;28;19955;-88
2021/09/29 06:54:24;;;;;;;;;;;14.90;99.90;;;;;;5043901;28;19949;-89
2021/09/29 06:57:06;;;;;;;;;;;15.20;99.90;;;;;;5048144;28;19954;-88
2021/09/29 06:59:35;;;;;;;;;;;15.50;99.90;;;;;;5057211;28;19951;-89
2021/09/29 07:02:02;;;;;;;;;;;16.80;99.90;;;;;;5057792;28;19983;-87
2021/09/29 07:04:28;;;;;;;;;;;14.30;99.90;;;;;;5054474;28;19976;-86
2021/09/29 07:06:57;;;;;;;;;;;17.00;99.90;;;;;;5049186;28;19948;-85
2021/09/29 07:09:26;;;;;;;;;;;15.10;99.90;;;;;;5050634;28;20031;-85
2021/09/29 07:11:52;;;;;;;;;;;14.90;99.90;;;;;;5048603;28;19949;-85
2021/09/29 07:14:21;;;;;;;;;;;15.40;99.90;;;;;;5049390;28;19954;-85
2021/09/29 07:16:48;;;;;;;;;;;15.00;99.90;;;;;;5049890;28;19977;-86
2021/09/29 07:19:14;;;;;;;;;;;15.20;99.90;;;;;;5053165;28;19952;-85
2021/09/29 07:21:44;;;;;;;;;;;15.20;99.90;;;;;;5052918;28;19953;-85
2021/09/29 07:24:11;;;;;;;;;;;15.40;99.90;;;;;;5050450;28;19949;-86
2021/09/29 07:26:40;;;;;;;;;;;16.80;99.90;;;;;;5053412;28;20009;-85
2021/09/29 07:29:13;;;;;;;;;;;14.70;99.90;;;;;;5052825;28;19968;-86
2021/09/29 07:31:41;;;;;;;;;;;15.80;99.90;;;;;;5044978;28;19952;-86
2021/09/29 07:34:08;;;;;;;;;;;14.80;99.90;;;;;;5056176;28;20002;-85
2021/09/29 07:36:35;;;;;;;;;;;14.80;99.90;;;;;;5055257;28;19971;-86
2021/09/29 07:39:01;;;;;;;;;;;15.30;99.90;;;;;;5053071;28;20461;-86
2021/09/29 07:41:28;;;;;;;;;;;15.40;99.90;;;;;;5053221;28;19973;-86
2021/09/29 07:43:55;;;;;;;;;;;15.40;99.90;;;;;;5056204;28;19946;-85
2021/09/29 07:46:22;;;;;;;;;;;15.40;99.90;;;;;;5126318;22;20008;-84
2021/09/29 07:48:48;;;;;;;;;;;15.40;99.90;;;;;;5054700;28;20043;-85
2021/09/29 07:51:15;;;;;;;;;;;15.40;99.90;;;;;;5053842;28;19966;-86
2021/09/29 07:53:45;;;;;;;;;;;15.50;99.90;;;;;;5056043;28;19935;-88
2021/09/29 07:59:29;;;;;;;;;;;15.60;99.90;;;;;;4975778;28;20003;-86
2021/09/29 08:02:18;;;;;;;;;;;15.20;99.90;;;;;;5057525;28;19936;-86
2021/09/29 08:05:05;;;;;;;;;;;15.70;99.90;;;;;;5055293;28;19936;-87
2021/09/29 08:08:08;;;;;;;;;;;;;;;;;;;;;
2021/09/29 08:11:07;;;;;;;;;;;14.80;99.90;;;;;;5055612;28;19951;-85
2021/09/29 08:16:38;;;;;;;;;;;15.10;99.90;;;;;;5055528;28;19957;-86
2021/09/29 08:21:51;;;;;;;;;;;15.60;99.90;;;;;;5059104;28;19989;-83
2021/09/29 08:24:51;;;;;;;;;;;15.40;99.90;;;;;;5059215;28;19943;-87
2021/09/29 08:27:32;;;;;;;;;;;16.30;99.90;;;;;;5054632;28;19980;-86
2021/09/29 08:30:17;;;;;;;;;;;15.50;99.90;;;;;;5050776;28;19966;-86
2021/09/29 08:32:57;;;;;;;;;;;15.80;99.90;;;;;;5053951;28;19936;-86
2021/09/29 08:35:55;;;;;;;;;;;15.80;99.90;;;;;;5055514;28;20411;-84
2021/09/29 08:44:55;;;;;;;;;;;15.60;99.90;;;;;;4920906;29;19949;-86
2021/09/29 08:47:34;;;;;;;;;;;15.60;99.90;;;;;;5018111;28;20011;-85
2021/09/29 08:50:48;;;;;;;;;;;15.60;99.90;;;;;;5056394;28;19967;-86
2021/09/29 08:56:44;;;;;;;;;;;15.60;99.90;;;;;;5056503;28;19935;-86
2021/09/29 09:27:14;;;;;;;;;;;14.80;99.90;;;;;;4983939;28;19987;-85
2021/09/29 10:07:06;;;;;;;;;;;15.20;99.90;;;;;;4927357;29;19956;-85
2021/09/29 10:09:39;;;;;;;;;;;15.20;99.90;;;;;;4992184;28;20046;-86
2021/09/29 10:12:19;;;;;;;;;;;18.60;99.90;;;;;;5034473;28;19947;-84
2021/09/29 10:23:18;;;;;;;;;;;15.30;99.90;;;;;;5032934;28;19944;-86
2021/09/29 10:26:07;;;;;;;;;;;15.20;99.90;;;;;;5034179;28;19992;-85
2021/09/29 10:28:35;;;;;;;;;;;15.30;99.90;;;;;;5031197;28;20026;-86
2021/09/29 10:31:14;;;;;;;;;;;15.30;99.90;;;;;;5032812;28;21597;-85
2021/09/29 10:33:45;;;;;;;;;;;15.30;99.90;;;;;;5035892;28;19955;-85
2021/09/29 10:36:24;;;;;;;;;;;15.30;99.90;;;;;;5035232;28;19960;-86
2021/09/29 10:44:24;;;;;;;;;;;15.30;99.90;;;;;;5029809;28;19941;-85
2021/09/29 10:47:00;;;;;;;;;;;15.30;99.90;;;;;;5036689;28;19953;-85
2021/09/29 10:49:51;;;;;;;;;;;15.40;99.90;;;;;;5036540;28;20000;-85
2021/09/29 10:52:47;;;;;;;;;;;15.40;99.90;;;;;;5036389;28;19955;-85
2021/09/29 11:04:15;;;;;;;;;;;15.20;99.90;;;;;;5036852;28;19954;-85
2021/09/29 11:09:45;;;;;;;;;;;15.40;99.90;;;;;;5037082;28;20021;-85
2021/09/29 11:28:57;;;;;;;;;;;15.50;99.90;;;;;;5033553;28;20616;-85
2021/09/29 11:31:25;;;;;;;;;;;15.50;99.90;;;;;;5036294;28;19930;-85
2021/09/29 11:33:58;;;;;;;;;;;16.00;99.90;;;;;;5034703;28;19951;-86
2021/09/29 11:36:40;;;;;;;;;;;15.40;99.90;;;;;;5033022;28;19970;-86
2021/09/29 12:09:52;;;;;;;;;;;15.60;99.90;;;;;;5035683;28;20053;-85
2021/09/29 12:12:21;;;;;;;;;;;15.60;99.90;;;;;;5030858;28;19946;-86
2021/09/29 12:14:48;;;;;;;;;;;15.60;99.90;;;;;;5032648;28;19944;-86
2021/09/29 12:17:21;;;;;;;;;;;15.60;99.90;;;;;;5033746;28;19945;-86
2021/09/29 12:19:51;;;;;;;;;;;15.60;99.90;;;;;;5034465;28;19971;-85
2021/09/29 12:22:19;;;;;;;;;;;15.70;99.90;;;;;;5033879;28;19955;-86
2021/09/29 12:24:48;;;;;;;;;;;15.70;99.90;;;;;;5035820;28;19953;-86
2021/09/29 12:27:25;;;;;;;;;;;15.70;99.90;;;;;;5030645;28;19957;-86
2021/09/29 12:29:53;;;;;;;;;;;15.80;99.90;;;;;;5033942;28;19989;-84
2021/09/29 12:32:33;;;;;;;;;;;15.80;99.90;;;;;;5036324;28;19959;-86
2021/09/29 12:35:09;;;;;;;;;;;15.80;99.90;;;;;;5035519;28;19956;-85
2021/09/29 12:37:37;;;;;;;;;;;15.70;99.90;;;;;;5018760;28;19942;-85
2021/09/29 12:40:03;;;;;;;;;;;15.80;99.90;;;;;;5038159;28;20020;-86
2021/09/29 12:42:31;;;;;;;;;;;15.80;99.90;;;;;;5037433;28;19949;-85
2021/09/29 12:44:58;;;;;;;;;;;15.80;99.90;;;;;;5036351;28;19976;-87
2021/09/29 12:50:15;;;;;;;;;;;15.80;99.90;;;;;;5034588;28;19967;-86
2021/09/29 12:52:50;;;;;;;;;;;15.80;99.90;;;;;;5037145;28;19948;-85
2021/09/29 12:55:21;;;;;;;;;;;15.80;99.90;;;;;;5036093;28;19954;-86
2021/09/29 12:57:47;;;;;;;;;;;15.80;99.90;;;;;;5036907;28;19950;-85
2021/09/29 13:00:16;;;;;;;;;;;15.70;99.90;;;;;;5037778;28;19996;-86
2021/09/29 13:02:44;;;;;;;;;;;15.90;99.90;;;;;;5038082;28;19978;-85
2021/09/29 13:05:11;;;;;;;;;;;15.90;99.90;;;;;;5038188;28;19936;-85
2021/09/29 13:07:37;;;;;;;;;;;15.90;99.90;;;;;;5036870;28;19938;-85
2021/09/29 13:10:04;;;;;;;;;;;15.90;99.90;;;;;;5035946;28;20030;-85
2021/09/29 13:12:30;;;;;;;;;;;15.90;99.90;;;;;;5036070;28;19950;-84
2021/09/29 13:15:00;;;;;;;;;;;15.90;99.90;;;;;;5036420;28;19939;-86
2021/09/29 13:17:28;;;;;;;;;;;15.90;99.90;;;;;;5036698;28;20017;-86
2021/09/29 13:19:59;;;;;;;;;;;16.00;99.90;;;;;;5035131;28;19963;-85
2021/09/29 13:22:26;;;;;;;;;;;15.90;99.90;;;;;;5034974;28;19946;-85
2021/09/29 13:25:19;;;;;;;;;;;16.00;99.90;;;;;;5034406;28;19972;-85
2021/09/29 13:38:42;;;;;;;;;;;16.20;99.90;;;;;;5037267;28;19957;-85
2021/09/29 13:41:09;;;;;;;;;;;16.20;99.90;;;;;;5036877;28;19945;-86
2021/09/29 13:43:35;;;;;;;;;;;16.20;99.90;;;;;;5037281;28;20007;-87
2021/09/29 13:46:01;;;;;;;;;;;16.20;99.90;;;;;;5037696;28;19953;-84
2021/09/29 13:48:28;;;;;;;;;;;16.10;99.90;;;;;;5037022;28;19964;-85
2021/09/29 13:50:56;;;;;;;;;;;16.10;99.90;;;;;;5033254;28;19960;-86
2021/09/29 13:53:25;;;;;;;;;;;16.10;99.90;;;;;;5033622;28;19947;-86
2021/09/29 13:55:52;;;;;;;;;;;16.00;99.90;;;;;;5027984;28;19945;-86
2021/09/29 13:58:32;;;;;;;;;;;16.00;99.90;;;;;;5028572;28;19949;-86
2021/09/29 14:01:15;;;;;;;;;;;16.00;99.90;;;;;;5032658;28;19944;-85
2021/09/29 14:03:53;;;;;;;;;;;16.10;99.90;;;;;;5033898;28;20095;-85
2021/09/29 14:14:51;;;;;;;;;;;16.00;99.90;;;;;;5028156;28;19950;-86
2021/09/29 14:28:42;;;;;;;;;;;16.10;99.90;;;;;;5024830;28;19964;-86
2021/09/29 14:31:14;;;;;;;;;;;16.10;99.90;;;;;;5021758;28;20408;-86
2021/09/29 14:33:44;;;;;;;;;;;16.20;99.90;;;;;;5023429;28;20313;-87
2021/09/29 14:36:11;;;;;;;;;;;16.10;99.90;;;;;;5022375;28;20018;-86
2021/09/29 14:38:39;;;;;;;;;;;16.20;99.90;;;;;;5021344;28;20053;-86
2021/09/29 14:41:06;;;;;;;;;;;16.10;99.90;;;;;;5035461;28;19958;-84
2021/09/29 14:43:32;;;;;;;;;;;16.10;99.90;;;;;;5034869;28;19938;-84
2021/09/29 14:45:59;;;;;;;;;;;16.10;99.90;;;;;;5029965;28;19951;-86
2021/09/29 14:48:25;;;;;;;;;;;16.20;99.90;;;;;;5024616;28;19965;-86
2021/09/29 14:50:53;;;;;;;;;;;16.20;99.90;;;;;;5026344;28;19965;-85
2021/09/29 14:53:19;;;;;;;;;;;16.30;99.90;;;;;;5026477;28;19950;-85
2021/09/29 14:55:47;;;;;;;;;;;16.30;99.90;;;;;;5025668;28;20019;-86
2021/09/29 14:58:14;;;;;;;;;;;16.30;99.90;;;;;;5028515;28;19964;-86
2021/09/29 15:00:40;;;;;;;;;;;16.30;99.90;;;;;;5024714;28;19983;-86
2021/09/29 15:03:07;;;;;;;;;;;16.20;99.90;;;;;;5025846;28;19957;-86
2021/09/29 15:05:34;;;;;;;;;;;16.20;99.90;;;;;;5026259;28;19955;-86
2021/09/29 15:08:00;;;;;;;;;;;16.20;99.90;;;;;;5024837;28;20380;-86
2021/09/29 15:10:27;;;;;;;;;;;16.20;99.90;;;;;;5025359;28;20350;-86
2021/09/29 15:12:59;;;;;;;;;;;16.20;99.90;;;;;;5027198;28;19949;-86
2021/09/29 15:15:29;;;;;;;;;;;16.20;99.90;;;;;;5026952;28;19946;-86
2021/09/29 15:17:57;;;;;;;;;;;16.20;99.90;;;;;;5027741;28;19955;-86
2021/09/29 15:20:32;;;;;;;;;;;16.10;99.90;;;;;;5027307;28;20019;-86
2021/09/29 15:23:11;;;;;;;;;;;16.20;99.90;;;;;;5024576;28;20376;-87
2021/09/29 15:25:52;;;;;;;;;;;16.20;99.90;;;;;;5027567;28;20360;-86
2021/09/29 15:31:27;;;;;;;;;;;15.90;99.90;;;;;;4979415;28;19965;-86
2021/09/29 15:47:48;;;;;;;;;;;16.10;99.90;;;;;;5037267;28;19958;-86
2021/09/29 15:50:23;;;;;;;;;;;16.10;99.90;;;;;;5037110;28;19959;-86
2021/09/29 15:53:01;;;;;;;;;;;16.10;99.90;;;;;;5040670;28;19936;-83
2021/09/29 15:55:33;;;;;;;;;;;16.20;99.90;;;;;;5031876;28;19991;-86
2021/09/29 16:00:55;;;;;;;;;;;16.10;99.90;;;;;;5032281;28;19966;-86
2021/09/29 16:03:39;;;;;;;;;;;15.90;99.90;;;;;;5033108;28;19944;-85
2021/09/29 16:06:19;;;;;;;;;;;16.00;99.90;;;;;;5072137;22;19979;-87
2021/09/29 16:09:12;;;;;;;;;;;16.00;99.90;;;;;;5046391;28;20007;-83
2021/09/29 16:14:56;;;;;;;;;;;15.90;99.90;;;;;;5045914;28;19969;-83
2021/09/29 16:17:30;;;;;;;;;;;15.90;99.90;;;;;;5044749;28;19967;-84
2021/09/29 16:31:02;;;;;;;;;;;15.80;99.90;;;;;;5047132;28;19964;-84
2021/09/29 16:33:47;;;;;;;;;;;15.80;99.90;;;;;;5050405;28;19947;-83
2021/09/29 16:36:15;;;;;;;;;;;15.80;99.90;;;;;;5051850;28;19961;-84
2021/09/29 16:38:44;;;;;;;;;;;15.80;99.90;;;;;;5050000;28;19990;-84
2021/09/29 16:41:10;;;;;;;;;;;15.80;99.90;;;;;;5050795;28;20015;-84
2021/09/29 16:43:37;;;;;;;;;;;15.80;99.90;;;;;;5052647;28;20405;-83
2021/09/29 16:46:04;;;;;;;;;;;15.70;99.90;;;;;;5057363;28;19968;-83
2021/09/29 16:48:33;;;;;;;;;;;15.60;99.90;;;;;;5056697;28;19946;-83
2021/09/29 16:51:09;;;;;;;;;;;15.60;99.90;;;;;;5055637;28;19944;-82
2021/09/29 16:53:38;;;;;;;;;;;15.60;99.90;;;;;;5056644;28;19952;-82
2021/09/29 16:56:04;;;;;;;;;;;15.50;99.90;;;;;;5056037;28;20011;-83
2021/09/29 16:58:35;;;;;;;;;;;15.50;99.90;;;;;;5054625;28;19963;-83
2021/09/29 17:01:07;;;;;;;;;;;15.40;99.90;;;;;;5053410;28;19954;-83
2021/09/29 17:03:35;;;;;;;;;;;15.40;99.90;;;;;;5053244;28;19964;-86
2021/09/29 17:06:01;;;;;;;;;;;15.40;99.90;;;;;;5052583;28;19974;-84
2021/09/29 17:08:29;;;;;;;;;;;15.30;99.90;;;;;;5051511;28;19953;-82
2021/09/29 17:10:55;;;;;;;;;;;15.30;99.90;;;;;;5050481;28;20031;-83
2021/09/29 17:13:23;;;;;;;;;;;15.20;99.90;;;;;;5047173;28;19948;-83
2021/09/29 17:15:51;;;;;;;;;;;15.30;99.90;;;;;;5048262;28;19948;-84
2021/09/29 17:18:17;;;;;;;;;;;15.30;99.90;;;;;;5048840;28;19948;-84
2021/09/29 17:20:45;;;;;;;;;;;15.40;99.90;;;;;;5047150;28;19950;-83
2021/09/29 17:23:13;;;;;;;;;;;15.30;99.90;;;;;;5045226;28;19964;-85
2021/09/29 17:25:42;;;;;;;;;;;15.30;99.90;;;;;;5044762;28;19956;-83
2021/09/29 17:28:14;;;;;;;;;;;15.30;99.90;;;;;;5044630;28;19953;-83
2021/09/29 17:30:42;;;;;;;;;;;15.30;99.90;;;;;;5049860;28;19943;-84
2021/09/29 17:33:22;;;;;;;;;;;15.30;99.90;;;;;;5046222;28;20008;-83
2021/09/29 17:38:58;;;;;;;;;;;15.30;99.90;;;;;;5000693;28;20007;-82
2021/09/29 17:52:25;;;;;;;;;;;15.40;99.90;;;;;;5044408;28;19949;-84
2021/09/29 17:54:52;;;;;;;;;;;15.40;99.90;;;;;;5044691;28;20394;-83
2021/09/29 17:57:18;;;;;;;;;;;15.40;99.90;;;;;;5043310;28;19967;-83
2021/09/29 17:59:48;;;;;;;;;;;15.40;99.90;;;;;;5043591;28;20002;-83
2021/09/29 18:02:18;;;;;;;;;;;15.40;99.90;;;;;;5043435;28;19966;-83
2021/09/29 18:04:46;;;;;;;;;;;15.50;99.90;;;;;;5043805;28;19977;-83
2021/09/29 18:07:26;;;;;;;;;;;15.50;99.90;;;;;;5043193;28;20061;-82
2021/09/29 18:09:54;;;;;;;;;;;15.60;99.90;;;;;;5043546;28;19952;-83
2021/09/29 18:12:21;;;;;;;;;;;15.50;99.90;;;;;;5043388;28;20460;-83
2021/09/29 18:14:48;;;;;;;;;;;15.50;99.90;;;;;;5043454;28;19996;-84
2021/09/29 18:17:14;;;;;;;;;;;15.50;99.90;;;;;;5043480;28;19970;-83
2021/09/29 18:19:41;;;;;;;;;;;15.50;99.90;;;;;;5043045;28;19948;-83
2021/09/29 18:22:07;;;;;;;;;;;15.40;99.90;;;;;;5044467;28;19950;-83
2021/09/29 18:24:34;;;;;;;;;;;15.40;99.90;;;;;;5044501;28;20054;-82
2021/09/29 18:27:02;;;;;;;;;;;15.40;99.90;;;;;;5043600;28;19964;-83
2021/09/29 18:29:29;;;;;;;;;;;15.30;99.90;;;;;;5038821;28;20012;-82
2021/09/29 18:31:55;;;;;;;;;;;15.30;99.90;;;;;;5039843;28;19961;-83
2021/09/29 18:34:25;;;;;;;;;;;15.20;99.90;;;;;;5041778;28;19951;-83
2021/09/29 18:36:51;;;;;;;;;;;15.10;99.90;;;;;;5040922;28;19972;-82
2021/09/29 18:39:21;;;;;;;;;;;15.00;99.90;;;;;;5043224;28;19950;-83
2021/09/29 18:41:48;;;;;;;;;;;14.90;99.90;;;;;;5040438;28;19946;-84
2021/09/29 18:44:15;;;;;;;;;;;14.70;99.90;;;;;;5045032;28;19953;-83
2021/09/29 18:46:43;;;;;;;;;;;14.60;99.90;;;;;;5041161;28;20311;-79
2021/09/29 18:49:12;;;;;;;;;;;14.60;99.90;;;;;;5042907;28;19953;-84
2021/09/29 18:51:41;;;;;;;;;;;14.50;99.90;;;;;;5044643;28;20062;-83
2021/09/29 18:54:12;;;;;;;;;;;14.50;99.90;;;;;;5043233;28;19998;-83
2021/09/29 19:07:41;;;;;;;;;;;14.20;99.90;;;;;;5036581;28;19965;-84